createdAt,value
2023-02-04T00:00:37.370Z,8.00
2023-02-04T00:03:06.674Z,12.00
2023-02-04T00:05:36.463Z,11.97
2023-02-04T00:08:04.848Z,11.00
2023-02-04T00:10:33.694Z,11.97
2023-02-04T00:13:02.211Z,8.43
2023-02-04T00:15:31.130Z,13.20
2023-02-04T00:17:59.431Z,14.47
2023-02-04T00:20:28.020Z,10.60
2023-02-04T00:22:58.184Z,12.33
2023-02-04T00:25:26.743Z,10.13
2023-02-04T00:27:55.138Z,10.50
2023-02-04T00:30:23.570Z,9.07
2023-02-04T00:32:54.780Z,12.27
2023-02-04T00:35:23.851Z,15.70
2023-02-04T00:37:52.512Z,14.20
2023-02-04T00:40:22.456Z,14.60
2023-02-04T00:42:50.698Z,10.30
2023-02-04T00:45:19.040Z,11.53
2023-02-04T00:47:47.250Z,11.03
2023-02-04T00:50:15.816Z,14.87
2023-02-04T00:52:44.272Z,13.70
2023-02-04T00:55:12.846Z,13.40
2023-02-04T00:57:42.379Z,11.03
2023-02-04T01:00:11.966Z,11.13
2023-02-04T01:02:41.379Z,9.23
2023-02-04T01:05:10.423Z,16.00
2023-02-04T01:07:38.867Z,12.70
2023-02-04T01:10:07.932Z,12.90
2023-02-04T01:12:36.366Z,9.93
2023-02-04T01:15:06.935Z,9.70
2023-02-04T01:17:35.367Z,12.43
2023-02-04T01:20:03.779Z,8.63
2023-02-04T01:22:32.062Z,13.40
2023-02-04T01:25:00.335Z,10.13
2023-02-04T01:27:28.595Z,8.80
2023-02-04T01:29:56.889Z,14.60
2023-02-04T01:32:26.539Z,11.73
2023-02-04T01:34:57.128Z,12.00
2023-02-04T01:37:25.559Z,9.47
2023-02-04T01:39:53.996Z,11.57
2023-02-04T01:42:22.637Z,7.97
2023-02-04T01:44:52.574Z,11.83
2023-02-04T01:47:21.624Z,10.17
2023-02-04T01:49:54.864Z,16.03
2023-02-04T01:52:24.277Z,13.63
2023-02-04T01:54:54.274Z,15.37
2023-02-04T01:57:22.711Z,15.07
2023-02-04T01:59:53.463Z,16.43
2023-02-04T02:02:43.076Z,8.93
2023-02-04T02:05:15.408Z,13.13
2023-02-04T02:07:43.792Z,10.23
2023-02-04T02:10:14.765Z,16.63
2023-02-04T02:12:43.785Z,10.10
2023-02-04T02:15:13.586Z,16.13
2023-02-04T02:17:42.762Z,11.47
2023-02-04T02:20:15.722Z,8.07
2023-02-04T02:22:52.818Z,8.67
2023-02-04T02:25:22.562Z,11.53
2023-02-04T02:27:50.909Z,9.57
2023-02-04T02:30:19.979Z,12.37
2023-02-04T02:32:49.131Z,11.70
2023-02-04T02:35:18.118Z,12.83
2023-02-04T02:37:46.642Z,11.03
2023-02-04T02:40:16.011Z,12.47
2023-02-04T02:42:48.205Z,12.37
2023-02-04T02:45:23.365Z,8.40
2023-02-04T02:47:52.093Z,11.13
2023-02-04T02:50:24.743Z,12.93
2023-02-04T02:52:53.652Z,11.47
2023-02-04T02:55:24.151Z,12.77
2023-02-04T02:57:55.644Z,12.70
2023-02-04T03:00:26.435Z,13.97
2023-02-04T03:03:06.708Z,8.60
2023-02-04T03:05:39.353Z,16.60
2023-02-04T03:08:09.063Z,14.23
2023-02-04T03:10:37.850Z,15.07
2023-02-04T03:13:07.871Z,14.83
2023-02-04T03:15:36.527Z,15.90
2023-02-04T03:18:05.353Z,11.53
2023-02-04T03:20:34.956Z,11.93
2023-02-04T03:23:03.233Z,19.70
2023-02-04T03:25:31.603Z,14.57
2023-02-04T03:28:00.674Z,18.17
2023-02-04T03:30:30.626Z,12.87
2023-02-04T03:32:59.504Z,12.07
2023-02-04T03:35:28.016Z,10.87
2023-02-04T03:37:57.957Z,10.00
2023-02-04T03:40:26.304Z,17.80
2023-02-04T03:42:54.742Z,14.13
2023-02-04T03:45:23.411Z,13.27
2023-02-04T03:47:52.949Z,10.17
2023-02-04T03:50:21.384Z,14.73
2023-02-04T03:52:51.558Z,17.20
2023-02-04T03:55:20.453Z,9.43
2023-02-04T03:57:48.806Z,19.50
2023-02-04T04:00:17.371Z,10.80
2023-02-04T04:02:46.375Z,19.07
2023-02-04T04:05:16.099Z,11.73
2023-02-04T04:07:45.117Z,18.83
2023-02-04T04:10:13.614Z,7.77
2023-02-04T04:12:42.005Z,13.50
2023-02-04T04:15:10.868Z,13.23
2023-02-04T04:17:39.264Z,11.67
2023-02-04T04:20:08.234Z,13.00
2023-02-04T04:22:37.749Z,9.77
2023-02-04T04:25:06.600Z,12.53
2023-02-04T04:27:34.974Z,11.37
2023-02-04T04:30:03.476Z,9.43
2023-02-04T04:32:31.866Z,11.00
2023-02-04T04:35:00.629Z,12.90
2023-02-04T04:37:29.034Z,16.20
2023-02-04T04:40:00.555Z,10.17
2023-02-04T04:42:28.986Z,15.30
2023-02-04T04:44:57.546Z,10.47
2023-02-04T04:47:25.953Z,11.07
2023-02-04T04:49:54.400Z,17.47
2023-02-04T04:52:22.803Z,10.23
2023-02-04T04:54:51.156Z,16.17
2023-02-04T04:57:20.728Z,10.30
2023-02-04T04:59:49.140Z,10.73
2023-02-04T05:02:17.553Z,14.40
2023-02-04T05:04:45.998Z,11.60
2023-02-04T05:07:14.411Z,14.27
2023-02-04T05:09:42.813Z,8.33
2023-02-04T05:12:11.092Z,11.53
2023-02-04T05:14:41.334Z,12.50
2023-02-04T05:17:09.649Z,11.43
2023-02-04T05:19:37.996Z,12.57
2023-02-04T05:22:06.391Z,11.50
2023-02-04T05:24:34.675Z,15.70
2023-02-04T05:27:03.096Z,11.03
2023-02-04T05:29:31.509Z,13.53
2023-02-04T05:32:01.125Z,17.30
2023-02-04T05:34:29.737Z,18.43
2023-02-04T05:36:58.107Z,12.87
2023-02-04T05:39:26.761Z,12.20
2023-02-04T05:41:55.206Z,14.83
2023-02-04T05:44:23.916Z,11.47
2023-02-04T05:46:52.318Z,11.37
2023-02-04T05:49:22.319Z,9.17
2023-02-04T05:51:50.652Z,11.00
2023-02-04T05:54:20.615Z,10.83
2023-02-04T05:56:49.512Z,12.80
2023-02-04T05:59:18.093Z,11.13
2023-02-04T06:01:46.489Z,11.77
2023-02-04T06:04:16.503Z,10.43
2023-02-04T06:06:46.330Z,18.00
2023-02-04T06:09:14.816Z,11.53
2023-02-04T06:11:43.221Z,13.03
2023-02-04T06:14:11.860Z,12.40
2023-02-04T06:16:40.399Z,17.17
2023-02-04T06:19:08.661Z,13.27
2023-02-04T06:21:37.133Z,13.57
2023-02-04T06:24:07.610Z,7.97
2023-02-04T06:26:35.987Z,13.10
2023-02-04T06:29:04.415Z,10.80
2023-02-04T06:31:32.945Z,11.67
2023-02-04T06:34:01.684Z,12.67
2023-02-04T06:36:29.943Z,12.30
2023-02-04T06:38:58.546Z,9.57
2023-02-04T06:41:28.186Z,9.93
2023-02-04T06:43:56.525Z,9.90
2023-02-04T06:46:25.125Z,13.70
2023-02-04T06:48:53.362Z,9.13
2023-02-04T06:51:21.795Z,6.43
2023-02-04T06:53:50.206Z,10.07
2023-02-04T06:56:18.623Z,12.73
2023-02-04T06:58:48.350Z,10.30
2023-02-04T07:01:16.839Z,14.30
2023-02-04T07:03:45.269Z,11.93
2023-02-04T07:06:13.636Z,13.07
2023-02-04T07:08:42.189Z,11.50
2023-02-04T07:11:10.609Z,13.20
2023-02-04T07:13:39.306Z,7.53
2023-02-04T07:16:09.699Z,10.50
2023-02-04T07:18:38.319Z,9.33
2023-02-04T07:21:06.734Z,12.90
2023-02-04T07:23:35.072Z,9.83
2023-02-04T07:26:03.281Z,12.27
2023-02-04T07:28:32.502Z,10.60
2023-02-04T07:31:00.971Z,14.33
2023-02-04T07:33:30.585Z,11.57
2023-02-04T07:35:58.993Z,10.20
2023-02-04T07:38:27.398Z,11.37
2023-02-04T07:40:55.827Z,13.40
2023-02-04T07:43:24.772Z,7.23
2023-02-04T07:45:53.196Z,11.20
2023-02-04T07:48:21.513Z,8.77
2023-02-04T07:50:51.390Z,10.00
2023-02-04T07:53:19.801Z,15.93
2023-02-04T07:55:48.218Z,11.93
2023-02-04T07:58:16.782Z,13.07
2023-02-04T08:00:45.189Z,9.37
2023-02-04T08:03:13.600Z,10.20
2023-02-04T08:05:42.013Z,12.80
2023-02-04T08:08:11.533Z,12.40
2023-02-04T08:10:40.228Z,10.97
2023-02-04T08:13:08.770Z,11.77
2023-02-04T08:15:37.261Z,12.67
2023-02-04T08:18:05.986Z,12.33
2023-02-04T08:20:34.794Z,13.03
2023-02-04T08:23:03.647Z,11.73
2023-02-04T08:25:33.169Z,12.20
2023-02-04T08:28:01.765Z,14.70
2023-02-04T08:30:30.716Z,15.70
2023-02-04T08:32:59.598Z,13.47
2023-02-04T08:35:28.150Z,12.33
2023-02-04T08:37:56.482Z,13.37
2023-02-04T08:40:24.886Z,9.07
2023-02-04T08:42:54.537Z,10.40
2023-02-04T08:45:22.954Z,11.20
2023-02-04T08:47:51.249Z,10.60
2023-02-04T08:50:19.668Z,9.07
2023-02-04T08:52:48.056Z,12.40
2023-02-04T08:55:16.803Z,12.20
2023-02-04T08:57:45.188Z,9.57
2023-02-04T09:00:16.096Z,11.77
2023-02-04T09:02:44.457Z,10.30
2023-02-04T09:05:13.387Z,13.83
2023-02-04T09:07:41.866Z,11.67
2023-02-04T09:10:10.601Z,10.13
2023-02-04T09:12:38.872Z,8.90
2023-02-04T09:15:07.868Z,10.17
2023-02-04T09:17:37.710Z,13.57
2023-02-04T09:20:06.970Z,10.17
2023-02-04T09:22:36.928Z,10.53
2023-02-04T09:25:05.429Z,7.53
2023-02-04T09:27:33.685Z,11.97
2023-02-04T09:30:02.572Z,11.57
2023-02-04T09:32:31.227Z,14.07
2023-02-04T09:35:00.867Z,10.33
2023-02-04T09:37:29.268Z,11.60
2023-02-04T09:39:57.678Z,12.00
2023-02-04T09:42:27.434Z,11.57
2023-02-04T09:44:56.154Z,15.60
2023-02-04T09:47:26.368Z,13.30
2023-02-04T09:49:54.977Z,12.70
2023-02-04T09:52:24.964Z,10.43
2023-02-04T09:54:54.210Z,9.80
2023-02-04T09:57:22.754Z,11.57
2023-02-04T09:59:52.792Z,12.27
2023-02-04T10:02:26.134Z,9.43
2023-02-04T10:04:58.757Z,8.80
2023-02-04T10:07:28.990Z,10.10
2023-02-04T10:09:57.765Z,10.87
2023-02-04T10:12:27.285Z,14.30
2023-02-04T10:14:55.556Z,11.87
2023-02-04T10:17:24.224Z,12.23
2023-02-04T10:19:52.997Z,10.03
2023-02-04T10:22:23.619Z,11.77
2023-02-04T10:24:53.456Z,11.23
2023-02-04T10:27:21.898Z,12.87
2023-02-04T10:29:58.072Z,11.90
2023-02-04T10:32:29.772Z,11.43
2023-02-04T10:35:04.089Z,11.40
2023-02-04T10:37:32.454Z,14.63
2023-02-04T10:40:02.662Z,13.03
2023-02-04T10:42:32.025Z,10.27
2023-02-04T10:45:00.860Z,11.50
2023-02-04T10:47:31.634Z,11.97
2023-02-04T10:50:04.689Z,10.90
2023-02-04T10:52:37.324Z,13.93
2023-02-04T10:55:12.082Z,10.67
2023-02-04T10:57:42.245Z,14.93
2023-02-04T11:00:17.934Z,10.43
2023-02-04T11:02:49.499Z,15.47
2023-02-04T11:05:20.405Z,10.77
2023-02-04T11:07:49.486Z,8.23
2023-02-04T11:10:21.161Z,9.33
2023-02-04T11:13:01.919Z,11.60
2023-02-04T11:15:44.587Z,11.60
2023-02-04T11:18:14.592Z,9.07
2023-02-04T11:20:42.987Z,13.10
2023-02-04T11:23:34.697Z,9.70
2023-02-04T11:26:07.685Z,9.40
2023-02-04T11:28:49.210Z,14.47
2023-02-04T11:31:42.692Z,9.90
2023-02-04T11:34:25.197Z,13.60
2023-02-04T11:37:03.373Z,10.70
2023-02-04T11:39:35.455Z,10.17
2023-02-04T11:42:05.865Z,9.10
2023-02-04T11:44:35.118Z,11.00
2023-02-04T11:47:08.119Z,12.00
2023-02-04T11:49:38.040Z,14.77
2023-02-04T11:52:08.973Z,10.40
2023-02-04T11:54:38.196Z,17.60
2023-02-04T11:57:07.732Z,13.60
2023-02-04T11:59:36.384Z,10.20
2023-02-04T12:02:16.639Z,15.07
2023-02-04T12:04:54.269Z,13.33
2023-02-04T12:07:28.624Z,9.60
2023-02-04T12:09:58.033Z,17.13
2023-02-04T12:12:31.928Z,14.67
2023-02-04T12:15:10.304Z,15.07
2023-02-04T12:17:38.769Z,12.27
2023-02-04T12:20:07.555Z,13.23
2023-02-04T12:22:35.964Z,15.73
2023-02-04T12:25:04.633Z,18.40
2023-02-04T12:27:34.364Z,16.37
2023-02-04T12:30:02.715Z,16.03
2023-02-04T12:32:31.269Z,20.23
2023-02-04T12:35:00.247Z,15.10
2023-02-04T12:37:28.673Z,13.97
2023-02-04T12:39:57.055Z,19.40
2023-02-04T12:42:25.473Z,18.27
2023-02-04T12:44:55.019Z,16.07
2023-02-04T12:47:23.357Z,17.50
2023-02-04T12:49:51.814Z,22.53
2023-02-04T12:52:20.231Z,20.73
2023-02-04T12:54:48.633Z,18.70
2023-02-04T12:57:19.743Z,22.60
2023-02-04T12:59:48.788Z,18.50
2023-02-04T13:02:18.676Z,18.50
2023-02-04T13:04:47.353Z,15.93
2023-02-04T13:07:15.782Z,20.57
2023-02-04T13:09:45.183Z,18.67
2023-02-04T13:12:14.402Z,18.70
2023-02-04T13:14:43.385Z,20.03
2023-02-04T13:17:11.906Z,19.53
2023-02-04T13:19:41.524Z,18.27
2023-02-04T13:22:09.937Z,20.83
2023-02-04T13:24:38.719Z,18.23
2023-02-04T13:27:07.313Z,17.33
2023-02-04T13:29:35.770Z,19.37
2023-02-04T13:32:04.103Z,21.97
2023-02-04T13:34:32.493Z,17.87
2023-02-04T13:37:02.305Z,15.47
2023-02-04T13:39:30.706Z,18.47
2023-02-04T13:41:59.075Z,17.63
2023-02-04T13:44:27.707Z,21.43
2023-02-04T13:46:56.183Z,38.37
2023-02-04T13:49:24.616Z,18.97
2023-02-04T13:51:52.838Z,19.30
2023-02-04T13:54:22.377Z,22.10
2023-02-04T13:56:50.654Z,16.37
2023-02-04T13:59:20.917Z,19.57
2023-02-04T14:01:49.680Z,16.63
2023-02-04T14:04:17.977Z,15.17
2023-02-04T14:06:46.487Z,20.67
2023-02-04T14:09:14.863Z,16.17
2023-02-04T14:11:44.413Z,23.67
2023-02-04T14:14:12.856Z,24.10
2023-02-04T14:16:41.329Z,28.37
2023-02-04T14:19:10.083Z,23.03
2023-02-04T14:21:38.491Z,17.63
2023-02-04T14:24:07.186Z,23.47
2023-02-04T14:26:35.798Z,31.20
2023-02-04T14:29:07.040Z,22.83
2023-02-04T14:31:36.647Z,19.17
2023-02-04T14:34:05.260Z,20.47
2023-02-04T14:36:33.633Z,26.90
2023-02-04T14:39:02.091Z,24.93
2023-02-04T14:41:31.284Z,18.47
2023-02-04T14:43:59.576Z,22.83
2023-02-04T14:46:29.317Z,17.57
2023-02-04T14:48:57.766Z,23.40
2023-02-04T14:51:26.166Z,21.40
2023-02-04T14:53:54.604Z,20.23
2023-02-04T14:56:23.013Z,17.50
2023-02-04T14:58:51.421Z,17.77
2023-02-04T15:01:20.596Z,18.30
2023-02-04T15:03:50.930Z,20.50
2023-02-04T15:06:19.404Z,18.27
2023-02-04T15:08:47.840Z,22.80
2023-02-04T15:11:16.238Z,19.17
2023-02-04T15:13:44.978Z,15.73
2023-02-04T15:16:14.802Z,20.57
2023-02-04T15:18:43.665Z,19.07
2023-02-04T15:21:14.400Z,21.30
2023-02-04T15:23:44.199Z,17.07
2023-02-04T15:26:12.616Z,19.87
2023-02-04T15:28:41.025Z,24.07
2023-02-04T15:31:09.638Z,16.87
2023-02-04T15:33:38.123Z,17.77
2023-02-04T15:36:06.941Z,17.83
2023-02-04T15:38:36.543Z,20.63
2023-02-04T15:41:05.154Z,18.50
2023-02-04T15:43:33.832Z,18.87
2023-02-04T15:46:02.838Z,17.17
2023-02-04T15:48:31.410Z,17.63
2023-02-04T15:50:59.881Z,21.33
2023-02-04T15:53:28.578Z,20.90
2023-02-04T15:55:58.030Z,18.70
2023-02-04T15:58:26.368Z,19.13
2023-02-04T16:00:54.811Z,19.73
2023-02-04T16:03:23.186Z,24.03
2023-02-04T16:05:52.014Z,18.77
2023-02-04T16:08:20.445Z,18.67
2023-02-04T16:10:48.807Z,19.37
2023-02-04T16:13:18.377Z,17.37
2023-02-04T16:15:46.782Z,20.27
2023-02-04T16:18:15.207Z,20.73
2023-02-04T16:20:43.483Z,24.40
2023-02-04T16:23:12.004Z,19.33
2023-02-04T16:25:40.313Z,20.87
2023-02-04T16:28:08.634Z,27.30
2023-02-04T16:30:39.307Z,24.63
2023-02-04T16:33:08.047Z,19.50
2023-02-04T16:35:59.323Z,22.43
2023-02-04T16:38:28.076Z,24.70
2023-02-04T16:40:56.356Z,21.40
2023-02-04T16:43:24.997Z,21.07
2023-02-04T16:45:54.710Z,23.13
2023-02-04T16:48:23.085Z,24.40
2023-02-04T16:50:51.505Z,24.87
2023-02-04T16:53:19.975Z,27.90
2023-02-04T16:55:49.157Z,24.00
2023-02-04T16:58:18.093Z,21.43
2023-02-04T17:00:46.527Z,23.87
2023-02-04T17:03:16.446Z,24.77
2023-02-04T17:05:44.876Z,26.47
2023-02-04T17:08:15.073Z,25.57
2023-02-04T17:11:00.938Z,28.63
2023-02-04T17:13:29.872Z,29.23
2023-02-04T17:16:01.070Z,29.13
2023-02-04T17:18:31.793Z,30.47
2023-02-04T17:21:00.864Z,25.27
2023-02-04T17:23:29.661Z,25.80
2023-02-04T17:25:58.126Z,26.73
2023-02-04T17:28:26.700Z,32.10
2023-02-04T17:30:55.148Z,35.30
2023-02-04T17:33:23.680Z,30.53
2023-02-04T17:35:53.335Z,31.03
2023-02-04T17:38:22.262Z,29.03
2023-02-04T17:40:51.810Z,33.77
2023-02-04T17:43:20.448Z,35.53
2023-02-04T17:45:48.871Z,36.97
2023-02-04T17:48:17.210Z,38.00
2023-02-04T17:50:45.841Z,38.53
2023-02-04T17:53:15.889Z,35.40
2023-02-04T17:55:44.108Z,33.97
2023-02-04T17:58:18.065Z,34.30
2023-02-04T18:00:47.542Z,33.13
2023-02-04T18:03:17.526Z,59.50
2023-02-04T18:05:47.548Z,36.30
2023-02-04T18:08:19.766Z,32.23
2023-02-04T18:10:49.604Z,32.77
2023-02-04T18:13:19.880Z,33.13
2023-02-04T18:15:51.182Z,31.17
2023-02-04T18:18:24.850Z,31.47
2023-02-04T18:21:00.288Z,31.97
2023-02-04T18:23:32.160Z,33.83
2023-02-04T18:26:06.369Z,38.60
2023-02-04T18:28:36.745Z,35.70
2023-02-04T18:31:19.558Z,34.27
2023-02-04T18:33:48.986Z,32.17
2023-02-04T18:36:22.768Z,33.43
2023-02-04T18:38:52.823Z,30.93
2023-02-04T18:41:31.405Z,33.57
2023-02-04T18:44:03.249Z,31.43
2023-02-04T18:46:34.158Z,28.97
2023-02-04T18:49:06.275Z,26.93
2023-02-04T18:51:39.059Z,27.00
2023-02-04T18:54:45.102Z,30.80
2023-02-04T18:57:29.087Z,27.63
2023-02-04T19:00:39.469Z,32.43
2023-02-04T19:03:22.331Z,31.00
2023-02-04T19:05:51.549Z,31.03
2023-02-04T19:08:26.020Z,27.43
2023-02-04T19:10:56.799Z,26.77
2023-02-04T19:13:27.521Z,28.83
2023-02-04T19:16:01.997Z,30.10
2023-02-04T19:18:34.245Z,33.83
2023-02-04T19:21:17.979Z,29.57
2023-02-04T19:23:46.619Z,21.10
2023-02-04T19:26:30.420Z,24.97
2023-02-04T19:28:58.792Z,18.83
2023-02-04T19:31:32.559Z,20.63
2023-02-04T19:34:17.252Z,28.00
2023-02-04T19:36:45.847Z,16.27
2023-02-04T19:39:26.572Z,20.60
2023-02-04T19:41:57.586Z,16.00
2023-02-04T19:44:42.094Z,17.90
2023-02-04T19:47:25.494Z,16.53
2023-02-04T19:50:02.624Z,18.20
2023-02-04T19:52:34.867Z,16.47
2023-02-04T19:55:29.186Z,18.53
2023-02-04T19:58:01.814Z,16.33
2023-02-04T20:00:44.876Z,12.70
2023-02-04T20:03:31.361Z,19.67
2023-02-04T20:06:03.237Z,14.43
2023-02-04T20:08:45.204Z,17.83
2023-02-04T20:11:49.757Z,13.33
2023-02-04T20:14:47.135Z,17.47
2023-02-04T20:17:41.447Z,14.40
2023-02-04T20:20:24.786Z,16.27
2023-02-04T20:22:54.696Z,14.93
2023-02-04T20:25:48.056Z,19.03
2023-02-04T20:28:44.777Z,11.47
2023-02-04T20:31:25.525Z,10.00
2023-02-04T20:33:56.237Z,8.83
2023-02-04T20:36:36.136Z,14.03
2023-02-04T20:39:30.571Z,6.77
2023-02-04T20:42:35.203Z,7.67
2023-02-04T20:45:33.398Z,9.87
2023-02-04T20:48:29.768Z,8.13
2023-02-04T20:50:58.630Z,10.57
2023-02-04T20:53:29.557Z,8.10
2023-02-04T20:56:03.699Z,8.30
2023-02-04T20:58:37.102Z,9.30
2023-02-04T21:01:21.332Z,8.60
2023-02-04T21:03:51.954Z,10.07
2023-02-04T21:06:24.461Z,9.73
2023-02-04T21:08:53.837Z,9.07
2023-02-04T21:11:22.985Z,13.90
2023-02-04T21:13:52.293Z,10.93
2023-02-04T21:16:21.185Z,9.53
2023-02-04T21:18:50.875Z,12.37
2023-02-04T21:21:20.372Z,10.93
2023-02-04T21:23:48.830Z,11.47
2023-02-04T21:26:17.120Z,8.93
2023-02-04T21:28:45.812Z,10.70
2023-02-04T21:31:14.324Z,9.53
2023-02-04T21:33:42.793Z,9.53
2023-02-04T21:36:13.374Z,10.67
2023-02-04T21:38:41.828Z,13.03
2023-02-04T21:41:10.104Z,12.63
2023-02-04T21:43:38.717Z,7.57
2023-02-04T21:46:07.247Z,12.97
2023-02-04T21:48:36.003Z,4.30
2023-02-04T21:51:04.423Z,6.60
2023-02-04T21:53:34.353Z,6.97
2023-02-04T21:56:02.733Z,7.57
2023-02-04T21:58:31.491Z,8.87
2023-02-04T22:00:59.678Z,9.57
2023-02-04T22:03:28.171Z,13.07
2023-02-04T22:05:56.552Z,12.10
2023-02-04T22:08:24.958Z,12.10
2023-02-04T22:10:54.629Z,14.73
2023-02-04T22:13:40.506Z,16.60
2023-02-04T22:16:09.114Z,20.33
2023-02-04T22:18:37.592Z,17.50
2023-02-04T22:21:06.051Z,18.70
2023-02-04T22:23:34.679Z,17.23
2023-02-04T22:26:04.222Z,11.97
2023-02-04T22:28:32.524Z,13.33
2023-02-04T22:31:01.285Z,15.03
2023-02-04T22:33:30.070Z,10.20
2023-02-04T22:35:58.461Z,12.57
2023-02-04T22:38:26.856Z,12.83
2023-02-04T22:40:55.406Z,12.30
2023-02-04T22:43:25.138Z,10.87
2023-02-04T22:45:53.597Z,9.07
2023-02-04T22:48:21.873Z,10.60
2023-02-04T22:50:50.148Z,12.47
2023-02-04T22:53:18.462Z,12.40
2023-02-04T22:55:46.843Z,10.40
2023-02-04T22:58:15.271Z,9.93
2023-02-04T23:00:45.286Z,7.43
2023-02-04T23:03:14.029Z,6.93
2023-02-04T23:05:42.376Z,10.97
2023-02-04T23:08:10.942Z,6.67
2023-02-04T23:10:39.263Z,10.57
2023-02-04T23:13:08.000Z,10.33
2023-02-04T23:15:36.630Z,17.67
2023-02-04T23:18:06.505Z,10.23
2023-02-04T23:20:35.240Z,7.00
2023-02-04T23:23:04.054Z,5.83
2023-02-04T23:25:32.968Z,9.03
2023-02-04T23:28:01.601Z,9.03
2023-02-04T23:30:30.032Z,9.10
2023-02-04T23:32:58.279Z,9.30
2023-02-04T23:35:28.189Z,5.87
2023-02-04T23:37:56.542Z,8.37
2023-02-04T23:40:25.028Z,7.37
2023-02-04T23:42:53.323Z,4.83
2023-02-04T23:45:21.965Z,5.73
2023-02-04T23:47:50.457Z,8.77
2023-02-04T23:50:19.092Z,7.20
2023-02-04T23:52:48.587Z,7.20
2023-02-04T23:55:18.404Z,8.33
2023-02-04T23:57:49.553Z,8.67
